createdAt,value
2019-06-07T00:00:51.304Z,3.50
2019-06-07T00:01:51.291Z,3.10
2019-06-07T00:02:51.310Z,3.20
2019-06-07T00:03:51.269Z,3.10
2019-06-07T00:04:51.257Z,3.20
2019-06-07T00:05:51.247Z,3.40
2019-06-07T00:06:51.236Z,3.30
2019-06-07T00:07:51.225Z,3.50
2019-06-07T00:08:51.245Z,3.40
2019-06-07T00:09:51.201Z,3.60
2019-06-07T00:10:51.188Z,3.80
2019-06-07T00:11:51.178Z,3.20
2019-06-07T00:12:51.168Z,3.30
2019-06-07T00:13:51.187Z,3.60
2019-06-07T00:14:51.147Z,3.60
2019-06-07T00:15:51.136Z,3.40
2019-06-07T00:16:51.121Z,3.40
2019-06-07T00:17:51.111Z,3.50
2019-06-07T00:18:51.130Z,3.40
2019-06-07T00:19:51.087Z,3.80
2019-06-07T00:20:51.075Z,3.60
2019-06-07T00:22:15.916Z,3.40
2019-06-07T00:22:52.092Z,3.50
2019-06-07T00:23:51.073Z,3.30
2019-06-07T00:24:51.031Z,3.50
2019-06-07T00:25:51.021Z,3.50
2019-06-07T00:26:58.431Z,3.20
2019-06-07T00:27:51.995Z,3.50
2019-06-07T00:28:51.016Z,3.20
2019-06-07T00:29:50.974Z,3.30
2019-06-07T00:30:52.409Z,3.30
2019-06-07T00:31:50.952Z,3.70
2019-06-07T00:32:51.266Z,3.20
2019-06-07T00:33:50.968Z,3.80
2019-06-07T00:34:50.918Z,3.90
2019-06-07T00:35:50.907Z,4.30
2019-06-07T00:36:50.895Z,3.50
2019-06-07T00:37:50.883Z,3.70
2019-06-07T00:38:50.903Z,3.70
2019-06-07T00:40:12.913Z,3.90
2019-06-07T00:40:51.853Z,3.20
2019-06-07T00:41:50.839Z,3.90
2019-06-07T00:42:50.828Z,3.30
2019-06-07T00:43:50.848Z,3.40
2019-06-07T00:44:50.804Z,3.60
2019-06-07T00:45:50.793Z,3.70
2019-06-07T00:46:50.786Z,3.20
2019-06-07T00:47:50.771Z,3.80
2019-06-07T00:48:50.763Z,3.90
2019-06-07T00:49:50.781Z,3.90
2019-06-07T00:50:50.737Z,4.00
2019-06-07T00:51:51.912Z,3.60
2019-06-07T00:53:51.702Z,3.90
2019-06-07T00:54:50.722Z,3.90
2019-06-07T00:55:50.682Z,3.70
2019-06-07T00:56:50.668Z,3.50
2019-06-07T00:57:50.657Z,3.70
2019-06-07T00:59:10.253Z,3.70
2019-06-07T00:59:51.666Z,3.60
2019-06-07T01:00:50.628Z,3.60
2019-06-07T01:01:50.614Z,4.20
2019-06-07T01:02:50.602Z,3.80
2019-06-07T01:03:50.589Z,3.30
2019-06-07T01:04:50.611Z,3.80
2019-06-07T01:05:50.567Z,4.00
2019-06-07T01:06:50.556Z,4.00
2019-06-07T01:07:50.586Z,4.10
2019-06-07T01:08:50.537Z,3.90
2019-06-07T01:09:50.554Z,4.00
2019-06-07T01:10:54.063Z,4.10
2019-06-07T01:11:50.499Z,3.50
2019-06-07T01:12:50.490Z,3.70
2019-06-07T01:13:50.475Z,4.00
2019-06-07T01:14:50.500Z,4.00
2019-06-07T01:15:50.453Z,3.60
2019-06-07T01:16:57.191Z,3.90
2019-06-07T01:18:33.048Z,4.10
2019-06-07T01:18:51.539Z,4.00
2019-06-07T01:19:50.440Z,3.80
2019-06-07T01:20:50.398Z,4.20
2019-06-07T01:21:50.387Z,4.50
2019-06-07T01:22:50.374Z,4.10
2019-06-07T01:24:12.109Z,4.20
2019-06-07T01:24:51.386Z,4.60
2019-06-07T01:25:50.341Z,4.60
2019-06-07T01:26:50.334Z,4.20
2019-06-07T01:27:50.318Z,4.00
2019-06-07T01:28:50.316Z,4.20
2019-06-07T01:29:50.326Z,4.10
2019-06-07T01:30:50.283Z,3.90
2019-06-07T01:31:50.275Z,4.30
2019-06-07T01:32:50.268Z,4.40
2019-06-07T01:33:51.472Z,4.20
2019-06-07T01:34:50.271Z,4.20
2019-06-07T01:35:50.290Z,4.10
2019-06-07T01:36:50.214Z,4.10
2019-06-07T01:37:50.206Z,4.20
2019-06-07T01:38:50.193Z,4.30
2019-06-07T01:39:50.229Z,4.20
2019-06-07T01:40:50.171Z,4.00
2019-06-07T01:41:50.159Z,4.30
2019-06-07T01:42:50.153Z,3.90
2019-06-07T01:43:50.136Z,4.30
2019-06-07T01:44:50.127Z,4.60
2019-06-07T01:45:50.146Z,4.20
2019-06-07T01:46:50.102Z,4.10
2019-06-07T01:47:50.095Z,4.40
2019-06-07T01:48:50.147Z,4.70
2019-06-07T01:49:50.098Z,4.10
2019-06-07T01:50:50.130Z,4.30
2019-06-07T01:51:50.046Z,4.00
2019-06-07T01:52:50.034Z,4.20
2019-06-07T01:53:50.022Z,4.40
2019-06-07T01:54:57.853Z,4.40
2019-06-07T01:55:51.030Z,4.40
2019-06-07T01:56:49.989Z,4.00
2019-06-07T01:57:49.977Z,4.30
2019-06-07T01:58:49.969Z,4.70
2019-06-07T01:59:49.956Z,4.30
2019-06-07T02:00:49.976Z,4.20
2019-06-07T02:01:49.931Z,4.20
2019-06-07T02:02:49.920Z,4.00
2019-06-07T02:03:49.942Z,4.60
2019-06-07T02:04:49.901Z,4.50
2019-06-07T02:05:49.917Z,4.10
2019-06-07T02:06:49.880Z,4.20
2019-06-07T02:07:49.866Z,4.30
2019-06-07T02:08:49.853Z,4.40
2019-06-07T02:09:49.841Z,4.00
2019-06-07T02:10:49.862Z,4.50
2019-06-07T02:11:49.817Z,4.30
2019-06-07T02:12:49.807Z,4.20
2019-06-07T02:13:49.796Z,4.40
2019-06-07T02:14:49.848Z,4.60
2019-06-07T02:15:49.804Z,4.10
2019-06-07T02:16:49.763Z,4.00
2019-06-07T02:17:49.752Z,4.00
2019-06-07T02:19:01.555Z,4.10
2019-06-07T02:19:50.727Z,4.10
2019-06-07T02:20:49.748Z,4.90
2019-06-07T02:21:49.708Z,4.60
2019-06-07T02:22:49.694Z,4.30
2019-06-07T02:23:49.683Z,4.30
2019-06-07T02:25:33.894Z,4.50
2019-06-07T02:25:50.895Z,4.30
2019-06-07T02:26:49.649Z,4.70
2019-06-07T02:27:49.639Z,4.20
2019-06-07T02:28:49.626Z,4.40
2019-06-07T02:29:49.614Z,4.40
2019-06-07T02:30:59.672Z,4.50
2019-06-07T02:31:50.623Z,3.90
2019-06-07T02:32:49.602Z,4.60
2019-06-07T02:33:49.571Z,3.80
2019-06-07T02:34:49.559Z,4.20
2019-06-07T02:35:49.548Z,4.20
2019-06-07T02:36:49.567Z,4.40
2019-06-07T02:37:49.526Z,4.10
2019-06-07T02:38:49.515Z,4.70
2019-06-07T02:39:49.501Z,4.60
2019-06-07T02:40:49.490Z,4.10
2019-06-07T02:41:49.515Z,4.40
2019-06-07T02:42:49.470Z,4.80
2019-06-07T02:43:49.460Z,4.50
2019-06-07T02:44:49.472Z,4.50
2019-06-07T02:45:49.435Z,4.30
2019-06-07T02:46:50.134Z,4.80
2019-06-07T02:47:49.426Z,4.60
2019-06-07T02:48:49.405Z,4.40
2019-06-07T02:49:49.394Z,4.10
2019-06-07T02:50:49.380Z,4.10
2019-06-07T02:51:49.399Z,4.50
2019-06-07T02:52:49.355Z,4.40
2019-06-07T02:53:49.342Z,4.80
2019-06-07T02:54:49.332Z,4.50
2019-06-07T02:56:34.276Z,4.20
2019-06-07T02:56:58.116Z,4.30
2019-06-07T02:57:50.302Z,4.60
2019-06-07T02:58:49.296Z,4.40
2019-06-07T03:00:06.827Z,4.60
2019-06-07T03:01:09.015Z,4.70
2019-06-07T03:01:50.264Z,4.90
2019-06-07T03:02:49.272Z,4.80
2019-06-07T03:03:49.302Z,4.60
2019-06-07T03:04:49.219Z,4.60
2019-06-07T03:05:49.212Z,4.70
2019-06-07T03:06:49.227Z,4.60
2019-06-07T03:07:49.185Z,4.60
2019-06-07T03:08:49.179Z,4.70
2019-06-07T03:09:49.227Z,4.60
2019-06-07T03:10:49.161Z,4.90
2019-06-07T03:11:49.144Z,4.70
2019-06-07T03:12:49.159Z,4.80
2019-06-07T03:13:49.119Z,4.90
2019-06-07T03:14:49.114Z,5.20
2019-06-07T03:15:50.362Z,5.00
2019-06-07T03:16:49.084Z,4.80
2019-06-07T03:17:49.104Z,4.40
2019-06-07T03:18:49.062Z,4.20
2019-06-07T03:19:49.050Z,4.80
2019-06-07T03:21:04.621Z,4.60
2019-06-07T03:21:50.025Z,4.60
2019-06-07T03:22:49.051Z,4.30
2019-06-07T03:23:49.005Z,4.70
2019-06-07T03:24:49.001Z,5.10
2019-06-07T03:25:48.981Z,5.10
2019-06-07T03:27:50.693Z,5.10
2019-06-07T03:28:48.952Z,5.00
2019-06-07T03:29:48.937Z,5.80
2019-06-07T03:31:01.513Z,5.10
2019-06-07T03:31:49.914Z,5.00
2019-06-07T03:32:48.968Z,4.80
2019-06-07T03:33:48.895Z,5.00
2019-06-07T03:34:48.880Z,4.80
2019-06-07T03:35:48.871Z,4.90
2019-06-07T03:36:48.857Z,5.20
2019-06-07T03:37:48.881Z,5.10
2019-06-07T03:38:48.843Z,5.50
2019-06-07T03:39:48.825Z,5.40
2019-06-07T03:40:48.812Z,5.80
2019-06-07T03:42:05.254Z,5.80
2019-06-07T03:42:49.820Z,6.30
2019-06-07T03:43:48.777Z,4.70
2019-06-07T03:44:48.813Z,5.70
2019-06-07T03:45:48.755Z,5.50
2019-06-07T03:46:48.757Z,5.80
2019-06-07T03:47:48.764Z,6.20
2019-06-07T03:48:48.735Z,6.00
2019-06-07T03:49:48.710Z,6.10
2019-06-07T03:51:03.903Z,6.00
2019-06-07T03:51:49.686Z,6.10
2019-06-07T03:52:48.707Z,5.80
2019-06-07T03:53:48.667Z,6.50
2019-06-07T03:54:48.659Z,6.20
2019-06-07T03:55:48.643Z,5.90
2019-06-07T03:56:48.630Z,6.40
2019-06-07T03:58:30.241Z,6.20
2019-06-07T03:58:50.573Z,6.50
2019-06-07T03:59:48.597Z,6.10
2019-06-07T04:00:48.588Z,5.70
2019-06-07T04:01:48.574Z,5.80
2019-06-07T04:02:48.602Z,6.30
2019-06-07T04:03:51.695Z,6.20
2019-06-07T04:04:48.541Z,5.90
2019-06-07T04:05:48.730Z,5.90
2019-06-07T04:06:48.556Z,6.10
2019-06-07T04:07:48.656Z,5.80
2019-06-07T04:08:48.531Z,5.70
2019-06-07T04:09:48.492Z,5.50
2019-06-07T04:10:59.804Z,5.80
2019-06-07T04:11:49.460Z,6.20
2019-06-07T04:12:48.455Z,6.50
2019-06-07T04:13:48.470Z,6.00
2019-06-07T04:14:48.428Z,5.10
2019-06-07T04:15:48.567Z,6.40
2019-06-07T04:16:48.406Z,6.40
2019-06-07T04:18:01.355Z,6.20
2019-06-07T04:18:49.413Z,6.00
2019-06-07T04:19:48.401Z,6.40
2019-06-07T04:20:48.359Z,6.80
2019-06-07T04:21:48.402Z,6.60
2019-06-07T04:22:48.340Z,7.40
2019-06-07T04:23:48.359Z,7.30
2019-06-07T04:24:48.360Z,7.50
2019-06-07T04:25:48.304Z,6.90
2019-06-07T04:26:48.292Z,7.80
2019-06-07T04:27:48.283Z,8.70
2019-06-07T04:29:31.668Z,9.30
2019-06-07T04:30:06.497Z,8.80
2019-06-07T04:30:49.245Z,8.70
2019-06-07T04:31:48.237Z,9.20
2019-06-07T04:32:48.225Z,9.70
2019-06-07T04:33:48.248Z,10.20
2019-06-07T04:34:48.309Z,10.10
2019-06-07T04:35:48.191Z,12.60
2019-06-07T04:36:58.607Z,11.90
2019-06-07T04:37:49.169Z,11.40
2019-06-07T04:38:48.188Z,11.90
2019-06-07T04:39:48.222Z,14.50
2019-06-07T04:40:48.134Z,14.30
2019-06-07T04:41:48.122Z,13.40
2019-06-07T04:42:48.113Z,14.70
2019-06-07T04:43:48.128Z,14.00
2019-06-07T04:44:48.299Z,14.70
2019-06-07T04:45:51.114Z,16.50
2019-06-07T04:46:48.067Z,18.30
2019-06-07T04:47:48.054Z,20.80
2019-06-07T04:48:48.078Z,21.30
2019-06-07T04:49:48.032Z,19.80
2019-06-07T04:50:48.019Z,17.10
2019-06-07T04:51:48.009Z,17.10
2019-06-07T04:52:48.000Z,18.50
2019-06-07T04:53:48.017Z,19.80
2019-06-07T04:54:47.976Z,20.80
2019-06-07T04:55:47.963Z,20.90
2019-06-07T04:56:47.953Z,18.10
2019-06-07T04:57:47.941Z,16.30
2019-06-07T04:58:47.932Z,18.70
2019-06-07T05:00:12.145Z,20.90
2019-06-07T05:00:55.633Z,20.30
2019-06-07T05:01:48.895Z,18.50
2019-06-07T05:02:47.884Z,18.30
2019-06-07T05:03:47.877Z,23.00
2019-06-07T05:04:47.988Z,20.90
2019-06-07T05:05:47.850Z,20.90
2019-06-07T05:06:47.846Z,22.80
2019-06-07T05:07:47.828Z,23.00
2019-06-07T05:08:47.815Z,21.70
2019-06-07T05:09:47.836Z,22.00
2019-06-07T05:10:47.794Z,25.80
2019-06-07T05:11:47.786Z,21.20
2019-06-07T05:12:47.770Z,20.50
2019-06-07T05:13:47.760Z,21.00
2019-06-07T05:14:47.780Z,19.40
2019-06-07T05:15:47.737Z,19.30
2019-06-07T05:16:47.726Z,21.70
2019-06-07T05:17:47.713Z,21.30
2019-06-07T05:18:47.702Z,23.40
2019-06-07T05:19:47.725Z,23.00
2019-06-07T05:20:47.681Z,20.80
2019-06-07T05:22:02.637Z,25.30
2019-06-07T05:22:48.655Z,24.20
2019-06-07T05:24:09.784Z,23.00
2019-06-07T05:24:48.665Z,28.40
2019-06-07T05:25:47.623Z,25.00
2019-06-07T05:26:47.612Z,23.70
2019-06-07T05:27:47.601Z,24.60
2019-06-07T05:28:47.591Z,23.00
2019-06-07T05:30:09.004Z,23.70
2019-06-07T05:31:03.675Z,23.60
2019-06-07T05:31:48.555Z,22.20
2019-06-07T05:32:47.546Z,21.30
2019-06-07T05:33:47.535Z,22.40
2019-06-07T05:34:47.691Z,21.60
2019-06-07T05:35:47.540Z,22.20
2019-06-07T05:37:08.461Z,23.40
2019-06-07T05:37:48.503Z,22.80
2019-06-07T05:38:47.475Z,23.10
2019-06-07T05:39:47.518Z,22.20
2019-06-07T05:40:49.146Z,22.00
2019-06-07T05:41:47.458Z,23.10
2019-06-07T05:42:47.433Z,21.50
2019-06-07T05:44:01.889Z,21.40
2019-06-07T05:44:48.422Z,22.60
2019-06-07T05:45:47.429Z,22.00
2019-06-07T05:46:47.701Z,23.80
2019-06-07T05:47:50.925Z,22.70
2019-06-07T05:48:48.230Z,20.50
2019-06-07T05:49:47.554Z,19.70
2019-06-07T05:50:55.989Z,21.30
2019-06-07T05:51:48.358Z,20.20
2019-06-07T05:52:47.743Z,20.60
2019-06-07T05:53:50.413Z,19.20
2019-06-07T05:54:47.296Z,21.20
2019-06-07T05:55:54.449Z,20.70
2019-06-07T05:56:50.957Z,20.20
2019-06-07T05:57:51.065Z,20.10
2019-06-07T05:58:47.248Z,19.90
2019-06-07T05:59:47.803Z,19.50
2019-06-07T06:00:47.849Z,21.10
2019-06-07T06:01:58.946Z,20.80
2019-06-07T06:03:04.315Z,19.20
2019-06-07T06:03:48.581Z,17.60
2019-06-07T06:04:49.204Z,16.30
2019-06-07T06:05:54.441Z,17.00
2019-06-07T06:06:48.188Z,16.80
2019-06-07T06:07:50.522Z,18.50
2019-06-07T06:08:47.953Z,19.00
2019-06-07T06:09:47.664Z,18.50
2019-06-07T06:10:49.054Z,16.70
2019-06-07T06:11:59.556Z,15.50
2019-06-07T06:12:51.807Z,18.40
2019-06-07T06:14:05.962Z,18.50
2019-06-07T06:14:48.067Z,16.50
2019-06-07T06:16:00.854Z,17.90
2019-06-07T06:16:50.004Z,18.40
2019-06-07T06:17:50.023Z,17.60
2019-06-07T06:18:49.191Z,17.20
2019-06-07T06:19:50.353Z,17.90
2019-06-07T06:21:12.655Z,17.20
2019-06-07T06:21:48.727Z,15.90
2019-06-07T06:22:48.676Z,17.80
2019-06-07T06:23:50.740Z,18.10
2019-06-07T06:25:24.529Z,16.00
2019-06-07T06:25:55.830Z,15.60
2019-06-07T06:26:52.267Z,14.70
2019-06-07T06:28:11.570Z,15.50
2019-06-07T06:28:49.645Z,15.00
2019-06-07T06:29:50.097Z,14.80
2019-06-07T06:30:47.955Z,14.60
2019-06-07T06:32:35.508Z,14.80
2019-06-07T06:32:54.967Z,14.00
2019-06-07T06:33:49.896Z,14.20
2019-06-07T06:34:49.432Z,13.90
2019-06-07T06:35:49.343Z,15.40
2019-06-07T06:36:50.095Z,16.00
2019-06-07T06:37:52.595Z,14.90
2019-06-07T06:38:49.751Z,14.80
2019-06-07T06:39:49.977Z,15.30
2019-06-07T06:40:49.721Z,15.20
2019-06-07T06:41:58.485Z,14.30
2019-06-07T06:42:49.049Z,15.30
2019-06-07T06:43:50.339Z,15.60
2019-06-07T06:44:53.671Z,15.20
2019-06-07T06:45:50.500Z,15.60
2019-06-07T06:46:55.789Z,14.20
2019-06-07T06:47:50.474Z,12.20
2019-06-07T06:48:53.790Z,12.20
2019-06-07T06:49:49.987Z,13.10
2019-06-07T06:50:52.232Z,13.70
2019-06-07T06:51:51.354Z,12.30
2019-06-07T06:52:53.467Z,10.40
2019-06-07T06:53:49.871Z,10.60
2019-06-07T06:54:55.377Z,10.80
2019-06-07T06:55:49.330Z,10.50
2019-06-07T06:56:47.566Z,10.10
2019-06-07T06:57:48.376Z,9.60
2019-06-07T06:59:32.531Z,9.90
2019-06-07T06:59:50.459Z,9.20
2019-06-07T07:00:58.914Z,8.70
2019-06-07T07:01:50.386Z,8.50
2019-06-07T07:03:39.326Z,8.20
2019-06-07T07:04:09.089Z,7.70
2019-06-07T07:04:48.689Z,7.10
2019-06-07T07:05:50.042Z,7.50
2019-06-07T07:06:48.034Z,10.00
2019-06-07T07:07:50.005Z,9.30
2019-06-07T07:08:48.259Z,9.20
2019-06-07T07:09:50.983Z,9.80
2019-06-07T07:10:51.055Z,9.50
2019-06-07T07:12:06.335Z,8.80
2019-06-07T07:12:47.851Z,8.10
2019-06-07T07:13:49.945Z,7.60
2019-06-07T07:14:49.736Z,7.70
2019-06-07T07:15:48.138Z,7.00
2019-06-07T07:16:50.081Z,7.80
2019-06-07T07:17:58.898Z,7.40
2019-06-07T07:18:51.120Z,7.70
2019-06-07T07:19:49.879Z,7.00
2019-06-07T07:20:48.235Z,5.90
2019-06-07T07:21:50.635Z,5.90
2019-06-07T07:22:48.598Z,6.20
2019-06-07T07:24:12.371Z,6.20
2019-06-07T07:24:49.752Z,5.60
2019-06-07T07:25:52.829Z,6.20
2019-06-07T07:26:50.065Z,6.20
2019-06-07T07:27:47.261Z,6.30
2019-06-07T07:28:50.840Z,5.80
2019-06-07T07:29:52.563Z,5.50
2019-06-07T07:30:47.527Z,6.10
2019-06-07T07:31:50.284Z,6.20
2019-06-07T07:32:48.962Z,6.40
2019-06-07T07:34:50.080Z,6.50
2019-06-07T07:36:10.993Z,6.00
2019-06-07T07:36:48.284Z,6.10
2019-06-07T07:37:48.924Z,5.70
2019-06-07T07:38:51.819Z,4.90
2019-06-07T07:39:50.163Z,5.40
2019-06-07T07:41:02.306Z,5.50
2019-06-07T07:42:10.587Z,5.80
2019-06-07T07:42:49.618Z,5.70
2019-06-07T07:43:54.469Z,5.10
2019-06-07T07:44:49.066Z,6.00
2019-06-07T07:45:50.495Z,4.90
2019-06-07T07:46:49.162Z,5.90
2019-06-07T07:48:07.074Z,6.50
2019-06-07T07:48:48.547Z,6.10
2019-06-07T07:49:48.460Z,6.70
2019-06-07T07:50:49.775Z,7.70
2019-06-07T07:51:48.896Z,6.90
2019-06-07T07:52:49.097Z,6.30
2019-06-07T07:53:54.616Z,5.60
2019-06-07T07:54:49.165Z,6.50
2019-06-07T07:55:50.468Z,6.40
2019-06-07T07:56:47.510Z,5.80
2019-06-07T07:57:48.317Z,5.30
2019-06-07T07:58:50.011Z,6.10
2019-06-07T08:00:04.482Z,6.60
2019-06-07T08:00:54.900Z,6.00
2019-06-07T08:01:48.586Z,5.50
2019-06-07T08:02:48.797Z,6.20
2019-06-07T08:03:46.014Z,7.20
2019-06-07T08:05:16.632Z,6.50
2019-06-07T08:05:47.608Z,5.40
2019-06-07T08:06:46.650Z,5.30
2019-06-07T08:07:49.922Z,5.30
2019-06-07T08:08:46.808Z,4.90
2019-06-07T08:09:47.418Z,4.90
2019-06-07T08:10:48.020Z,4.50
2019-06-07T08:11:47.745Z,5.90
2019-06-07T08:13:08.827Z,5.80
2019-06-07T08:13:48.009Z,5.90
2019-06-07T08:14:47.674Z,5.40
2019-06-07T08:15:48.302Z,4.20
2019-06-07T08:16:47.011Z,3.30
2019-06-07T08:17:47.250Z,3.50
2019-06-07T08:18:45.697Z,3.60
2019-06-07T08:19:47.614Z,4.30
2019-06-07T08:21:05.012Z,3.60
2019-06-07T08:21:47.891Z,3.50
2019-06-07T08:22:45.619Z,3.00
2019-06-07T08:23:47.548Z,3.50
2019-06-07T08:24:50.021Z,3.30
2019-06-07T08:25:46.763Z,3.40
2019-06-07T08:27:09.422Z,3.70
2019-06-07T08:27:47.030Z,3.60
2019-06-07T08:28:45.552Z,3.30
2019-06-07T08:30:00.927Z,3.20
2019-06-07T08:30:50.615Z,2.80
2019-06-07T08:31:48.161Z,3.10
2019-06-07T08:32:45.505Z,3.00
2019-06-07T08:33:45.497Z,3.20
2019-06-07T08:34:45.517Z,3.40
2019-06-07T08:36:46.458Z,3.50
2019-06-07T08:38:48.341Z,2.70
2019-06-07T08:39:46.473Z,3.60
2019-06-07T08:40:45.466Z,3.20
2019-06-07T08:41:59.354Z,5.70
2019-06-07T08:43:04.552Z,3.40
2019-06-07T08:43:46.380Z,3.80
2019-06-07T08:44:45.405Z,4.30
2019-06-07T08:45:45.364Z,3.60
2019-06-07T08:46:45.350Z,3.50
2019-06-07T08:47:45.336Z,3.40
2019-06-07T08:48:45.324Z,2.90
2019-06-07T08:49:45.824Z,3.10
2019-06-07T08:50:45.303Z,3.30
2019-06-07T08:51:45.293Z,3.30
2019-06-07T08:52:45.280Z,3.10
2019-06-07T08:54:02.936Z,2.80
2019-06-07T08:54:46.286Z,2.80
2019-06-07T08:55:45.247Z,2.90
2019-06-07T08:56:45.239Z,3.00
2019-06-07T08:57:45.255Z,2.90
2019-06-07T08:58:45.226Z,2.80
2019-06-07T08:59:45.250Z,2.60
2019-06-07T09:00:47.449Z,2.80
2019-06-07T09:01:45.181Z,2.70
2019-06-07T09:02:45.166Z,3.10
2019-06-07T09:03:45.156Z,2.60
2019-06-07T09:04:45.159Z,2.60
2019-06-07T09:05:45.163Z,2.50
2019-06-07T09:07:46.114Z,2.50
2019-06-07T09:08:45.104Z,2.70
2019-06-07T09:09:45.125Z,2.60
2019-06-07T09:10:45.076Z,2.60
2019-06-07T09:11:45.064Z,2.70
2019-06-07T09:12:45.062Z,2.70
2019-06-07T09:13:45.043Z,2.60
2019-06-07T09:14:59.882Z,2.20
2019-06-07T09:15:46.051Z,2.60
2019-06-07T09:16:45.015Z,2.60
2019-06-07T09:18:30.102Z,2.30
2019-06-07T09:18:45.984Z,2.40
2019-06-07T09:19:44.978Z,2.50
2019-06-07T09:20:44.996Z,2.30
2019-06-07T09:21:44.951Z,3.10
2019-06-07T09:22:44.940Z,2.50
2019-06-07T09:23:44.929Z,2.30
2019-06-07T09:24:44.932Z,2.40
2019-06-07T09:25:57.234Z,3.00
2019-06-07T09:26:45.894Z,2.30
2019-06-07T09:27:44.887Z,2.80
2019-06-07T09:28:44.873Z,2.50
2019-06-07T09:29:44.862Z,2.70
2019-06-07T09:30:44.895Z,2.50
2019-06-07T09:31:53.764Z,2.80
2019-06-07T09:32:45.825Z,2.60
2019-06-07T09:33:44.815Z,3.10
2019-06-07T09:34:44.805Z,2.80
2019-06-07T09:35:44.826Z,3.20
2019-06-07T09:36:44.784Z,2.50
2019-06-07T09:38:45.759Z,2.20
2019-06-07T09:39:44.754Z,2.50
2019-06-07T09:40:44.769Z,2.40
2019-06-07T09:41:50.309Z,2.20
2019-06-07T09:42:45.712Z,2.30
2019-06-07T09:44:01.575Z,2.30
2019-06-07T09:44:45.690Z,2.40
2019-06-07T09:45:44.711Z,2.30
2019-06-07T09:46:44.669Z,2.30
2019-06-07T09:47:44.666Z,2.40
2019-06-07T09:49:10.659Z,2.30
2019-06-07T09:49:45.635Z,2.00
2019-06-07T09:50:44.626Z,2.20
2019-06-07T09:51:44.642Z,2.50
2019-06-07T09:52:57.932Z,2.10
2019-06-07T09:53:45.590Z,1.90
2019-06-07T09:55:45.596Z,2.30
2019-06-07T09:56:46.269Z,2.10
2019-06-07T09:57:44.545Z,2.00
2019-06-07T09:58:51.920Z,3.70
2019-06-07T09:59:46.876Z,2.70
2019-06-07T10:00:44.511Z,2.60
2019-06-07T10:01:44.530Z,3.10
2019-06-07T10:02:44.491Z,2.70
2019-06-07T10:03:44.495Z,2.60
2019-06-07T10:04:44.468Z,4.40
2019-06-07T10:05:44.457Z,5.00
2019-06-07T10:06:44.485Z,4.20
2019-06-07T10:07:59.615Z,3.30
2019-06-07T10:10:45.398Z,2.70
2019-06-07T10:11:44.420Z,2.30
2019-06-07T10:12:44.376Z,3.80
2019-06-07T10:13:44.367Z,3.30
2019-06-07T10:14:45.279Z,2.80
2019-06-07T10:15:44.344Z,2.40
2019-06-07T10:16:46.537Z,1.90
2019-06-07T10:17:44.326Z,2.30
2019-06-07T10:18:44.312Z,1.90
2019-06-07T10:19:44.300Z,1.90
2019-06-07T10:20:44.287Z,1.80
2019-06-07T10:21:44.310Z,1.80
2019-06-07T10:22:44.272Z,2.30
2019-06-07T10:23:44.274Z,1.90
2019-06-07T10:24:44.265Z,1.90
2019-06-07T10:25:44.251Z,1.90
2019-06-07T10:26:44.381Z,2.20
2019-06-07T10:27:44.250Z,2.30
2019-06-07T10:28:44.202Z,1.90
2019-06-07T10:29:44.195Z,1.90
2019-06-07T10:30:44.182Z,1.90
2019-06-07T10:31:44.196Z,1.80
2019-06-07T10:32:44.158Z,2.00
2019-06-07T10:33:44.170Z,2.00
2019-06-07T10:34:44.129Z,2.00
2019-06-07T10:35:44.120Z,2.10
2019-06-07T10:36:44.162Z,1.90
2019-06-07T10:37:44.103Z,1.70
2019-06-07T10:38:44.085Z,1.60
2019-06-07T10:39:48.757Z,1.80
2019-06-07T10:40:45.061Z,1.90
2019-06-07T10:41:44.085Z,1.90
2019-06-07T10:42:44.041Z,1.80
2019-06-07T10:43:44.028Z,1.90
2019-06-07T10:44:44.035Z,2.10
2019-06-07T10:45:44.009Z,1.90
2019-06-07T10:46:44.004Z,2.70
2019-06-07T10:47:44.025Z,2.20
2019-06-07T10:48:43.976Z,2.20
2019-06-07T10:49:43.961Z,1.90
2019-06-07T10:50:43.982Z,1.80
2019-06-07T10:51:43.945Z,2.00
2019-06-07T10:52:43.964Z,1.50
2019-06-07T10:53:43.915Z,1.70
2019-06-07T10:54:43.911Z,1.60
2019-06-07T10:55:43.894Z,1.50
2019-06-07T10:56:43.884Z,1.50
2019-06-07T10:57:43.909Z,1.60
2019-06-07T10:58:43.863Z,1.60
2019-06-07T10:59:43.850Z,1.80
2019-06-07T11:00:43.853Z,1.80
2019-06-07T11:01:43.836Z,1.40
2019-06-07T11:02:43.904Z,1.80
2019-06-07T11:03:43.807Z,1.60
2019-06-07T11:04:43.830Z,1.60
2019-06-07T11:05:43.788Z,1.40
2019-06-07T11:06:43.772Z,2.00
2019-06-07T11:07:43.793Z,1.40
2019-06-07T11:08:43.754Z,1.40
2019-06-07T11:09:43.745Z,1.50
2019-06-07T11:10:43.737Z,1.60
2019-06-07T11:11:43.724Z,1.50
2019-06-07T11:12:43.739Z,1.50
2019-06-07T11:13:43.702Z,1.70
2019-06-07T11:14:43.684Z,1.40
2019-06-07T11:15:43.673Z,1.40
2019-06-07T11:16:43.672Z,1.80
2019-06-07T11:17:43.687Z,1.60
2019-06-07T11:18:43.638Z,1.50
2019-06-07T11:19:43.632Z,1.40
2019-06-07T11:20:43.629Z,1.40
2019-06-07T11:21:43.612Z,1.80
2019-06-07T11:22:43.625Z,1.60
2019-06-07T11:23:43.598Z,1.50
2019-06-07T11:24:43.625Z,1.50
2019-06-07T11:25:43.565Z,1.30
2019-06-07T11:26:43.551Z,1.30
2019-06-07T11:27:43.573Z,1.30
2019-06-07T11:28:43.531Z,1.50
2019-06-07T11:29:43.518Z,1.50
2019-06-07T11:30:43.512Z,1.50
2019-06-07T11:31:47.113Z,1.50
2019-06-07T11:32:43.515Z,1.50
2019-06-07T11:33:43.476Z,1.70
2019-06-07T11:34:43.462Z,1.50
2019-06-07T11:35:43.453Z,1.30
2019-06-07T11:36:43.441Z,1.50
2019-06-07T11:37:43.432Z,1.40
2019-06-07T11:38:43.448Z,1.50
2019-06-07T11:39:43.404Z,1.40
2019-06-07T11:40:43.395Z,1.10
2019-06-07T11:41:43.395Z,1.40
2019-06-07T11:42:43.415Z,1.50
2019-06-07T11:43:43.362Z,1.60
2019-06-07T11:44:56.169Z,1.40
2019-06-07T11:45:44.338Z,1.40
2019-06-07T11:46:43.329Z,1.10
2019-06-07T11:47:43.348Z,1.30
2019-06-07T11:48:43.335Z,1.30
2019-06-07T11:49:43.293Z,1.10
2019-06-07T11:50:43.343Z,1.30
2019-06-07T11:51:43.297Z,1.30
2019-06-07T11:52:46.262Z,1.20
2019-06-07T11:53:43.281Z,1.20
2019-06-07T11:54:43.240Z,1.30
2019-06-07T11:55:43.228Z,1.20
2019-06-07T11:56:43.217Z,1.20
2019-06-07T11:57:43.210Z,1.50
2019-06-07T11:58:43.226Z,1.20
2019-06-07T11:59:43.183Z,1.30
2019-06-07T12:00:43.175Z,1.30
2019-06-07T12:01:43.161Z,1.60
2019-06-07T12:02:43.152Z,1.70
2019-06-07T12:03:43.171Z,1.30
2019-06-07T12:04:43.130Z,1.50
2019-06-07T12:05:43.118Z,1.20
2019-06-07T12:06:43.120Z,1.40
2019-06-07T12:07:43.095Z,1.60
2019-06-07T12:08:43.140Z,1.60
2019-06-07T12:09:55.807Z,1.40
2019-06-07T12:10:44.065Z,1.40
2019-06-07T12:11:43.052Z,1.20
2019-06-07T12:12:43.041Z,1.40
2019-06-07T12:13:43.063Z,1.30
2019-06-07T12:14:43.022Z,1.60
2019-06-07T12:15:43.018Z,1.40
2019-06-07T12:16:42.997Z,1.40
2019-06-07T12:17:43.169Z,1.50
2019-06-07T12:18:43.006Z,1.60
2019-06-07T12:19:42.966Z,1.30
2019-06-07T12:20:42.954Z,1.30
2019-06-07T12:21:42.945Z,2.00
2019-06-07T12:22:42.931Z,1.60
2019-06-07T12:23:42.952Z,1.50
2019-06-07T12:24:42.914Z,1.40
2019-06-07T12:25:42.900Z,1.60
2019-06-07T12:26:42.889Z,1.60
2019-06-07T12:27:42.883Z,1.60
2019-06-07T12:28:42.868Z,1.40
2019-06-07T12:29:42.908Z,1.50
2019-06-07T12:30:42.845Z,1.60
2019-06-07T12:31:42.842Z,1.50
2019-06-07T12:32:42.823Z,1.40
2019-06-07T12:33:42.816Z,1.30
2019-06-07T12:34:42.832Z,1.40
2019-06-07T12:35:42.791Z,1.60
2019-06-07T12:36:42.782Z,1.40
2019-06-07T12:37:44.790Z,1.60
2019-06-07T12:38:42.758Z,1.60
2019-06-07T12:39:42.778Z,1.40
2019-06-07T12:40:56.624Z,1.30
2019-06-07T12:41:43.760Z,1.60
2019-06-07T12:42:42.721Z,1.20
2019-06-07T12:43:42.707Z,1.50
2019-06-07T12:44:42.728Z,1.60
2019-06-07T12:45:45.209Z,1.50
2019-06-07T12:46:42.670Z,1.30
2019-06-07T12:47:42.672Z,1.60
2019-06-07T12:48:42.649Z,1.40
2019-06-07T12:49:42.676Z,1.40
2019-06-07T12:50:43.933Z,1.50
2019-06-07T12:51:42.620Z,1.40
2019-06-07T12:52:42.610Z,1.40
2019-06-07T12:53:42.628Z,1.60
2019-06-07T12:54:42.621Z,1.50
2019-06-07T12:55:42.577Z,1.50
2019-06-07T12:56:42.562Z,1.40
2019-06-07T12:57:42.550Z,1.70
2019-06-07T12:58:42.540Z,1.60
2019-06-07T12:59:42.559Z,1.70
2019-06-07T13:00:42.519Z,1.50
2019-06-07T13:01:42.505Z,1.60
2019-06-07T13:02:42.505Z,1.70
2019-06-07T13:03:42.485Z,1.60
2019-06-07T13:04:42.502Z,1.70
2019-06-07T13:05:42.466Z,1.30
2019-06-07T13:06:42.455Z,1.60
2019-06-07T13:07:42.440Z,1.50
2019-06-07T13:08:42.429Z,1.50
2019-06-07T13:09:42.419Z,1.80
2019-06-07T13:10:42.435Z,1.60
2019-06-07T13:11:42.393Z,1.50
2019-06-07T13:12:44.132Z,1.30
2019-06-07T13:13:42.372Z,1.50
2019-06-07T13:14:42.360Z,1.50
2019-06-07T13:15:42.381Z,1.30
2019-06-07T13:16:42.338Z,1.40
2019-06-07T13:17:42.330Z,1.20
2019-06-07T13:18:42.320Z,1.40
2019-06-07T13:19:42.306Z,1.50
2019-06-07T13:20:42.353Z,1.40
2019-06-07T13:21:42.283Z,1.50
2019-06-07T13:22:42.278Z,1.90
2019-06-07T13:23:44.398Z,1.20